Time;durP1;ratioP1;P1;durP2;ratioP2;P2;SDS_P1;SDS_P2;PMS_P1;PMS_P2;Temp;Humidity;BMP_temperature;BMP_pressure;BME280_temperature;BME280_humidity;BME280_pressure;Samples;Min_cycle;Max_cycle;Signal;HPM_P1;HPM_P2
2022/01/22 00:01:46;;;;;;;10.55;2.47;;;;;;;4.35;100.00;102137.19;5062960;28;20035;-87
2022/01/22 00:04:12;;;;;;;9.85;2.88;;;;;;;4.26;100.00;102126.28;5053790;28;20046;-87
2022/01/22 00:06:37;;;;;;;15.90;4.72;;;;;;;4.31;100.00;102135.69;5071395;28;20253;-87
2022/01/22 00:09:03;;;;;;;9.00;3.27;;;;;;;4.42;100.00;102142.97;5066999;28;20037;-87
2022/01/22 00:11:35;;;;;;;8.63;2.50;;;;;;;4.39;100.00;102137.88;5034724;28;20017;-87
2022/01/22 00:16:44;;;;;;;10.80;2.83;;;;;;;4.33;100.00;102133.78;5080853;28;20021;-87
2022/01/22 00:19:10;;;;;;;9.32;2.58;;;;;;;4.28;100.00;102129.69;5093792;28;20017;-86
2022/01/22 00:21:38;;;;;;;11.00;4.15;;;;;;;4.40;100.00;102143.09;5056241;28;20502;-87
2022/01/22 00:24:07;;;;;;;16.55;3.38;;;;;;;4.36;100.00;102130.97;5059214;28;20045;-86
2022/01/22 00:26:33;;;;;;;13.63;2.92;;;;;;;4.31;100.00;102119.81;5054493;28;20046;-87
2022/01/22 00:28:58;;;;;;;12.10;2.80;;;;;;;4.33;100.00;102117.06;5035187;28;20033;-87
2022/01/22 00:31:23;;;;;;;8.50;2.93;;;;;;;4.23;100.00;102109.66;5050987;28;20033;-87
2022/01/22 00:33:49;;;;;;;8.73;2.70;;;;;;;4.26;100.00;102126.28;5049874;28;20113;-87
2022/01/22 00:36:14;;;;;;;15.13;3.13;;;;;;;4.23;100.00;102117.59;5061722;28;20406;-88
2022/01/22 00:38:39;;;;;;;11.60;2.73;;;;;;;4.26;100.00;102121.00;5053414;28;20086;-87
2022/01/22 00:41:05;;;;;;;11.73;2.57;;;;;;;4.25;100.00;102129.88;5070803;28;20028;-87
2022/01/22 00:43:30;;;;;;;16.37;2.77;;;;;;;4.15;100.00;102127.75;5053135;28;20032;-86
2022/01/22 00:45:55;;;;;;;11.03;3.17;;;;;;;4.29;100.00;102132.25;5069446;28;20100;-87
2022/01/22 00:48:21;;;;;;;8.87;2.37;;;;;;;4.22;100.00;102134.41;5052742;28;20443;-87
2022/01/22 00:50:51;;;;;;;12.47;3.23;;;;;;;4.15;100.00;102119.81;5047918;28;20106;-84
2022/01/22 00:53:16;;;;;;;14.73;2.78;;;;;;;4.16;100.00;102134.72;5069616;28;20451;-87
2022/01/22 00:55:43;;;;;;;16.98;3.00;;;;;;;4.11;100.00;102136.78;5050041;28;20031;-87
2022/01/22 00:58:08;;;;;;;16.40;3.10;;;;;;;4.06;100.00;102136.19;5052507;28;20141;-87
2022/01/22 01:00:34;;;;;;;16.43;4.10;;;;;;;3.96;100.00;102129.75;5049450;28;20409;-87
2022/01/22 01:02:59;;;;;;;10.18;3.03;;;;;;;3.88;100.00;102121.38;5069115;28;20273;-87
2022/01/22 01:05:25;;;;;;;12.40;3.93;;;;;;;3.92;100.00;102144.06;5062358;28;20124;-87
2022/01/22 01:07:50;;;;;;;10.73;3.15;;;;;;;3.89;100.00;102145.09;5051068;28;20282;-87
2022/01/22 01:10:18;;;;;;;10.93;2.87;;;;;;;3.93;100.00;102158.97;5049519;28;20032;-87
2022/01/22 01:12:44;;;;;;;16.20;4.10;;;;;;;3.95;100.00;102163.22;5065551;28;20481;-86
2022/01/22 01:34:01;;;;;;;18.35;3.63;;;;;;;4.13;100.00;102202.81;5057272;28;20032;-86
2022/01/22 01:36:27;;;;;;;11.63;3.50;;;;;;;4.11;100.00;102202.03;5047379;28;20028;-86
2022/01/22 01:38:58;;;;;;;16.20;3.95;;;;;;;3.97;100.00;102202.78;5060190;28;20058;-87
2022/01/22 01:41:35;;;;;;;15.80;3.85;;;;;;;4.00;100.00;102215.81;5068914;28;20120;-87
2022/01/22 01:44:01;;;;;;;20.27;5.88;;;;;;;3.97;100.00;102224.78;5052194;28;20025;-87
2022/01/22 01:46:47;;;;;;;9.98;3.67;;;;;;;3.95;100.00;102228.44;5053139;28;20035;-87
2022/01/22 01:49:13;;;;;;;13.15;3.55;;;;;;;3.95;100.00;102231.06;5052182;28;20111;-87
2022/01/22 01:51:39;;;;;;;10.23;3.40;;;;;;;3.96;100.00;102232.81;5049197;28;20545;-87
2022/01/22 01:59:27;;;;;;;11.82;3.47;;;;;;;4.02;100.00;102253.59;5056749;28;20043;-86
2022/01/22 02:01:53;;;;;;;11.95;3.70;;;;;;;4.01;100.00;102257.19;5049945;28;20021;-87
2022/01/22 02:04:18;;;;;;;11.70;3.60;;;;;;;4.02;100.00;102259.72;5051241;28;20033;-88
2022/01/22 02:06:44;;;;;;;24.95;4.93;;;;;;;4.02;100.00;102258.88;5050873;28;20090;-87
2022/01/22 02:09:11;;;;;;;11.68;3.67;;;;;;;4.03;100.00;102263.25;5045792;28;20098;-88
2022/01/22 02:11:39;;;;;;;16.08;4.63;;;;;;;4.02;100.00;102265.00;5052533;28;20024;-87
2022/01/22 02:23:31;;;;;;;15.02;4.63;;;;;;;4.00;100.00;102263.38;5044586;28;20044;-87
2022/01/22 02:25:32;;;;;;;10.43;4.80;;;;;;;3.96;100.00;102253.94;5060362;28;20021;-87
2022/01/22 02:28:00;;;;;;;16.02;3.72;;;;;;;3.96;100.00;102261.88;5059800;28;20040;-87
2022/01/22 02:30:31;;;;;;;14.27;4.90;;;;;;;4.00;100.00;102263.38;5052087;28;20024;-87
2022/01/22 02:33:28;;;;;;;14.48;3.10;;;;;;;4.01;100.00;102265.97;5042695;28;20051;-87
2022/01/22 02:36:21;;;;;;;16.27;3.47;;;;;;;3.98;100.00;102271.41;5058921;28;20029;-87
2022/01/22 02:38:55;;;;;;;12.48;3.60;;;;;;;3.93;100.00;102257.59;5058486;28;20049;-86
2022/01/22 02:41:23;;;;;;;14.30;3.47;;;;;;;4.04;100.00;102262.28;5042350;28;20037;-87
2022/01/22 02:43:50;;;;;;;14.75;3.92;;;;;;;3.95;100.00;102260.16;5081155;28;20039;-87
2022/01/22 02:46:17;;;;;;;;;;;;;;;3.86;100.00;102255.34;5037734;28;20031;-87
2022/01/22 02:48:43;;;;;;;17.75;3.75;;;;;;;3.86;100.00;102263.28;5052967;28;19914;-87
2022/01/22 02:51:08;;;;;;;13.75;4.07;;;;;;;3.87;100.00;102265.00;5055262;28;20115;-88
2022/01/22 02:53:34;;;;;;;17.30;3.87;;;;;;;3.80;100.00;102264.47;5051233;28;20040;-87
2022/01/22 02:56:00;;;;;;;12.57;3.27;;;;;;;3.78;100.00;102269.81;5066359;28;20271;-87
2022/01/22 02:58:25;;;;;;;10.20;3.13;;;;;;;3.76;100.00;102276.13;5051438;28;20041;-88
2022/01/22 03:00:51;;;;;;;12.18;3.17;;;;;;;3.78;100.00;102275.09;5051435;28;20058;-87
2022/01/22 03:03:18;;;;;;;12.43;3.00;;;;;;;3.89;100.00;102287.75;5060119;28;20525;-88
2022/01/22 03:05:43;;;;;;;18.02;4.18;;;;;;;3.88;100.00;102285.19;5036161;28;20033;-87
2022/01/22 03:08:10;;;;;;;14.87;3.57;;;;;;;3.85;100.00;102280.09;5055090;28;20036;-87
2022/01/22 03:10:38;;;;;;;22.45;3.55;;;;;;;3.88;100.00;102279.91;5055837;28;20279;-87
2022/01/22 03:13:16;;;;;;;20.15;4.95;;;;;;;3.95;100.00;102286.56;5043608;28;20455;-87
2022/01/22 03:21:11;;;;;;;16.90;3.38;;;;;;;3.88;100.00;102275.47;5045689;28;20048;-87
2022/01/22 03:29:10;;;;;;;19.13;3.67;;;;;;;3.78;100.00;102290.13;5063523;28;20089;-86
2022/01/22 03:31:36;;;;;;;10.98;2.45;;;;;;;3.77;100.00;102299.00;5054963;28;20039;-87
2022/01/22 03:34:02;;;;;;;15.65;3.22;;;;;;;3.76;100.00;102306.03;5059607;28;20496;-87
2022/01/22 03:36:32;;;;;;;12.68;4.10;;;;;;;3.78;100.00;102309.47;5067069;28;20037;-87
2022/01/22 03:38:58;;;;;;;8.00;3.03;;;;;;;3.80;100.00;102309.38;5051700;28;20025;-87
2022/01/22 03:41:24;;;;;;;13.90;3.10;;;;;;;3.81;100.00;102317.22;5059879;28;20040;-87
2022/01/22 03:43:53;;;;;;;10.25;2.70;;;;;;;3.76;100.00;102324.53;5052213;28;20025;-87
2022/01/22 03:46:20;;;;;;;18.67;3.53;;;;;;;3.75;100.00;102324.63;5054864;28;20497;-87
2022/01/22 03:48:45;;;;;;;15.38;3.28;;;;;;;3.75;100.00;102333.41;5063327;28;20033;-86
2022/01/22 03:51:11;;;;;;;23.55;6.45;;;;;;;3.79;100.00;102334.97;5077037;28;20050;-85
2022/01/22 03:53:37;;;;;;;13.90;3.00;;;;;;;3.78;100.00;102340.31;5082528;28;20044;-87
2022/01/22 03:56:05;;;;;;;13.85;3.28;;;;;;;3.84;100.00;102340.00;5056996;28;20077;-87
2022/01/22 03:58:56;;;;;;;19.08;3.85;;;;;;;3.83;100.00;102340.06;5073135;28;20173;-87
2022/01/22 04:04:11;;;;;;;12.30;3.60;;;;;;;3.80;100.00;102347.22;5077324;28;20025;-86
2022/01/22 04:09:23;;;;;;;14.02;4.07;;;;;;;3.74;100.00;102347.53;5080884;28;20080;-86
2022/01/22 04:11:51;;;;;;;10.13;3.05;;;;;;;3.73;100.00;102348.47;5053004;28;20031;-87
2022/01/22 04:14:21;;;;;;;12.88;3.25;;;;;;;3.67;100.00;102329.44;5035340;28;20029;-87
2022/01/22 04:17:03;;;;;;;17.10;2.97;;;;;;;3.74;100.00;102350.16;5035760;28;20037;-88
2022/01/22 04:25:08;;;;;;;14.48;3.13;;;;;;;3.62;100.00;102334.97;5015299;28;20056;-87
2022/01/22 04:27:34;;;;;;;16.20;4.18;;;;;;;3.73;100.00;102356.41;5066754;28;20047;-87
2022/01/22 04:30:00;;;;;;;15.13;3.17;;;;;;;3.77;100.00;102357.97;5058684;28;20061;-88
2022/01/22 04:32:26;;;;;;;;;;;;;;;3.69;100.00;102354.84;5058726;28;20877;-87
2022/01/22 04:34:52;;;;;;;21.20;4.20;;;;;;;3.67;100.00;102363.78;5043252;28;19947;-86
2022/01/22 04:37:18;;;;;;;12.88;3.45;;;;;;;3.55;100.00;102357.34;5053180;28;20409;-87
2022/01/22 04:39:45;;;;;;;9.13;4.05;;;;;;;3.52;100.00;102357.50;5052032;28;20647;-88
2022/01/22 04:42:11;;;;;;;15.70;5.32;;;;;;;3.38;100.00;102339.69;5042531;28;20021;-87
2022/01/22 04:44:44;;;;;;;10.70;3.05;;;;;;;3.48;100.00;102355.94;5061305;28;20052;-88
2022/01/22 04:52:37;;;;;;;17.65;5.15;;;;;;;3.36;100.00;102366.16;5062909;28;20036;-87
2022/01/22 04:55:03;;;;;;;14.35;3.80;;;;;;;3.42;100.00;102370.31;5060896;28;20024;-87
2022/01/22 04:57:36;;;;;;;14.43;4.70;;;;;;;3.43;100.00;102373.81;5053303;28;20470;-88
2022/01/22 05:00:08;;;;;;;14.35;3.33;;;;;;;3.36;100.00;102367.97;5041279;28;20386;-87
2022/01/22 05:02:54;;;;;;;16.42;3.70;;;;;;;3.27;100.00;102379.81;5067831;28;20131;-88
2022/01/22 05:05:35;;;;;;;14.75;3.75;;;;;;;3.18;100.00;102375.00;5068807;28;20165;-87
2022/01/22 05:08:21;;;;;;;;;;;;;;;3.18;100.00;102380.28;5055719;28;20093;-87
2022/01/22 05:10:59;;;;;;;11.20;3.47;;;;;;;3.03;100.00;102371.31;5045165;28;20287;-87
2022/01/22 05:13:25;;;;;;;20.02;5.07;;;;;;;2.95;100.00;102369.06;5060623;28;20047;-87
2022/01/22 05:15:50;;;;;;;12.03;3.73;;;;;;;3.00;100.00;102365.31;5049974;28;20913;-88
2022/01/22 05:18:16;;;;;;;21.17;4.47;;;;;;;2.91;100.00;102366.63;5042739;28;20044;-87
2022/01/22 05:20:52;;;;;;;14.68;3.88;;;;;;;2.86;100.00;102371.28;5062853;28;20569;-87
2022/01/22 05:23:21;;;;;;;13.77;3.90;;;;;;;2.78;100.00;102378.69;5034886;28;20075;-87
2022/01/22 05:25:53;;;;;;;9.32;3.42;;;;;;;2.75;100.00;102377.91;5051671;28;20033;-87
2022/01/22 05:39:21;;;;;;;16.40;4.90;;;;;;;2.60;100.00;102398.84;5056913;28;20029;-88
2022/01/22 05:41:47;;;;;;;12.00;4.55;;;;;;;2.60;100.00;102393.56;5048130;28;20385;-87
2022/01/22 05:44:12;;;;;;;15.32;4.25;;;;;;;2.60;100.00;102398.84;5051701;28;20065;-88
2022/01/22 05:46:38;;;;;;;12.10;5.07;;;;;;;2.60;100.00;102398.84;5043640;28;20029;-87
2022/01/22 05:49:04;;;;;;;11.93;3.10;;;;;;;2.61;100.00;102405.84;5060270;28;20475;-87
2022/01/22 05:51:30;;;;;;;17.88;4.45;;;;;;;2.47;100.00;102395.94;5051693;28;20086;-88
2022/01/22 05:59:55;;;;;;;7.88;3.20;;;;;;;2.46;100.00;102423.22;5061717;28;20390;-89
2022/01/22 06:01:57;;;;;;;9.70;3.22;;;;;;;2.38;100.00;102415.66;5041467;28;20123;-89
2022/01/22 06:04:23;;;;;;;9.80;3.67;;;;;;;2.46;100.00;102418.81;5044845;28;20120;-89
2022/01/22 06:06:56;;;;;;;8.52;3.13;;;;;;;2.48;100.00;102416.09;5052182;28;20122;-90
2022/01/22 06:09:21;;;;;;;11.60;4.00;;;;;;;2.52;100.00;102421.16;5051838;28;20040;-90
2022/01/22 06:12:03;;;;;;;17.50;4.73;;;;;;;2.56;100.00;102418.41;5043925;28;20311;-89
2022/01/22 06:14:36;;;;;;;15.80;4.53;;;;;;;2.56;100.00;102413.13;5044460;28;20029;-89
2022/01/22 06:17:02;;;;;;;10.50;3.83;;;;;;;2.61;100.00;102426.94;5051978;28;20120;-90
2022/01/22 06:19:48;;;;;;;6.43;3.83;;;;;;;2.57;100.00;102431.50;5058116;28;20115;-90
2022/01/22 06:22:13;;;;;;;14.45;3.90;;;;;;;2.61;100.00;102426.94;5060736;28;20123;-89
2022/01/22 06:24:39;;;;;;;13.65;5.28;;;;;;;2.57;100.00;102418.31;5055023;28;20025;-89
2022/01/22 06:27:08;;;;;;;13.52;4.00;;;;;;;2.52;100.00;102413.25;5048980;28;20115;-89
2022/01/22 06:29:33;;;;;;;13.35;4.22;;;;;;;2.60;100.00;102430.50;5052431;28;20453;-89
2022/01/22 06:31:59;;;;;;;16.55;4.53;;;;;;;2.48;100.00;102424.00;5047468;28;20032;-88
2022/01/22 06:34:25;;;;;;;15.48;4.20;;;;;;;2.57;100.00;102435.91;5055404;28;20119;-89
2022/01/22 06:36:51;;;;;;;10.48;3.88;;;;;;;2.56;100.00;102432.44;5061847;28;20052;-90
2022/01/22 06:39:20;;;;;;;21.92;7.72;;;;;;;2.52;100.00;102429.06;5046313;28;20036;-89
2022/01/22 06:42:04;;;;;;;17.92;6.13;;;;;;;2.60;100.00;102449.84;5061121;28;20040;-90
2022/01/22 06:44:48;;;;;;;21.05;5.90;;;;;;;2.68;100.00;102458.25;5062046;28;20052;-89
2022/01/22 06:47:45;;;;;;;14.73;5.38;;;;;;;2.68;100.00;102465.31;5062323;28;20033;-89
2022/01/22 06:50:14;;;;;;;25.75;6.28;;;;;;;2.65;100.00;102473.34;5060234;28;20394;-89
2022/01/22 06:52:56;;;;;;;26.00;6.50;;;;;;;2.64;100.00;102484.81;5062295;28;20032;-89
2022/01/22 06:55:41;;;;;;;27.67;7.93;;;;;;;2.63;100.00;102477.84;5051869;28;20040;-89
2022/01/22 06:58:08;;;;;;;15.75;6.82;;;;;;;2.66;100.00;102477.69;5064937;28;20173;-89
2022/01/22 07:00:36;;;;;;;21.88;5.85;;;;;;;2.68;100.00;102475.84;5053293;28;20521;-90
2022/01/22 07:03:13;;;;;;;16.77;6.22;;;;;;;2.68;100.00;102476.69;5058524;28;20031;-90
2022/01/22 07:05:39;;;;;;;;;;;;;;;2.74;100.00;102478.22;5056262;28;20029;-90
2022/01/22 07:08:12;;;;;;;18.00;5.32;;;;;;;2.71;100.00;102473.91;5058097;28;19916;-89
2022/01/22 07:10:42;;;;;;;17.67;6.13;;;;;;;2.61;100.00;102463.88;5053967;28;20043;-91
2022/01/22 07:13:08;;;;;;;13.35;5.43;;;;;;;2.67;100.00;102474.13;5051641;28;20033;-89
2022/01/22 07:15:34;;;;;;;15.35;5.20;;;;;;;2.71;100.00;102480.97;5052960;28;20070;-88
2022/01/22 07:18:07;;;;;;;19.60;6.93;;;;;;;2.74;100.00;102488.78;5059932;28;20029;-90
2022/01/22 07:20:38;;;;;;;21.40;6.63;;;;;;;2.76;100.00;102492.16;5077806;28;20032;-90
2022/01/22 07:23:53;;;;;;;11.98;5.25;;;;;;;2.70;100.00;102488.03;5083171;28;20031;-90
2022/01/22 07:26:31;;;;;;;18.00;6.38;;;;;;;2.64;100.00;102476.91;5059788;28;20033;-89
2022/01/22 07:28:59;;;;;;;20.40;6.72;;;;;;;2.68;100.00;102473.22;5063578;28;20119;-89
2022/01/22 07:31:27;;;;;;;19.60;5.97;;;;;;;2.73;100.00;102464.16;5057608;28;20970;-89
2022/01/22 07:33:56;;;;;;;20.65;6.53;;;;;;;2.75;100.00;102477.28;5065375;28;20025;-89
2022/01/22 07:36:22;;;;;;;28.05;7.43;;;;;;;2.66;100.00;102460.09;5058213;28;20119;-89
2022/01/22 07:38:50;;;;;;;17.02;5.13;;;;;;;2.86;100.00;102485.56;5049986;28;20104;-90
2022/01/22 07:41:16;;;;;;;18.45;5.60;;;;;;;3.04;100.00;102497.03;5053866;28;20061;-90
2022/01/22 07:43:49;;;;;;;15.00;5.78;;;;;;;3.04;100.00;102504.09;5047712;28;20086;-90
2022/01/22 07:46:27;;;;;;;17.38;5.43;;;;;;;3.04;100.00;102499.69;5077391;28;20031;-88
2022/01/22 07:49:11;;;;;;;17.33;5.93;;;;;;;3.04;100.00;102491.75;5059147;28;20494;-90
2022/01/22 07:51:44;;;;;;;12.85;5.65;;;;;;;3.09;100.00;102507.38;5054039;28;20040;-89
2022/01/22 07:54:10;;;;;;;21.73;6.53;;;;;;;3.02;100.00;102514.75;5044750;28;20021;-89
2022/01/22 07:56:35;;;;;;;23.30;8.30;;;;;;;2.98;100.00;102501.78;5063586;28;20120;-89
2022/01/22 07:59:02;;;;;;;23.90;6.75;;;;;;;3.06;100.00;102507.53;5043321;28;20394;-89
2022/01/22 08:01:32;;;;;;;12.73;5.50;;;;;;;2.96;100.00;102494.75;5080204;28;20036;-88
2022/01/22 08:04:23;;;;;;;16.25;5.75;;;;;;;3.01;100.00;102504.25;5065656;28;20082;-89
2022/01/22 08:06:56;;;;;;;22.30;7.07;;;;;;;3.04;100.00;102490.91;5062874;28;20041;-87
2022/01/22 08:09:40;;;;;;;25.95;6.47;;;;;;;3.08;100.00;102492.50;5064368;28;20047;-89
2022/01/22 08:12:26;;;;;;;20.77;7.15;;;;;;;3.05;100.00;102492.66;5069593;28;20044;-88
2022/01/22 08:14:57;;;;;;;12.98;5.50;;;;;;;3.09;100.00;102497.72;5056934;28;20093;-90
2022/01/22 08:17:23;;;;;;;21.63;6.53;;;;;;;3.11;100.00;102494.97;5051206;28;20079;-89
2022/01/22 08:19:49;;;;;;;24.40;7.07;;;;;;;3.12;100.00;102507.25;5052428;28;20060;-89
2022/01/22 08:22:33;;;;;;;24.35;7.40;;;;;;;3.11;100.00;102510.81;5071515;28;20052;-89
2022/01/22 08:25:19;;;;;;;31.83;7.47;;;;;;;3.17;100.00;102510.53;5088391;28;20040;-89
2022/01/22 08:30:35;;;;;;;21.30;7.47;;;;;;;3.26;100.00;102522.47;5071694;28;20039;-89
2022/01/22 08:33:32;;;;;;;18.05;8.13;;;;;;;3.31;100.00;102518.66;5055847;28;20028;-88
2022/01/22 08:35:53;;;;;;;20.85;8.15;;;;;;;3.32;100.00;102533.56;5062865;28;20040;-88
2022/01/22 08:38:21;;;;;;;;;;;;;;;3.35;100.00;102530.81;5040187;28;20724;-89
2022/01/22 08:40:47;;;;;;;21.70;8.25;;;;;;;3.43;100.00;102533.06;5050945;28;19944;-90
2022/01/22 08:43:12;;;;;;;30.13;10.50;;;;;;;3.40;100.00;102527.94;5054010;28;20040;-89
2022/01/22 08:45:38;;;;;;;34.87;10.57;;;;;;;3.39;100.00;102534.16;5053932;28;20024;-89
2022/01/22 08:48:04;;;;;;;29.70;10.68;;;;;;;3.44;100.00;102531.28;5055483;28;20024;-89
2022/01/22 08:50:30;;;;;;;32.53;10.48;;;;;;;3.41;100.00;102523.53;5055063;28;20036;-89
2022/01/22 08:52:55;;;;;;;27.52;8.98;;;;;;;3.45;100.00;102525.09;5053632;28;20059;-89
2022/01/22 08:55:21;;;;;;;40.65;11.88;;;;;;;3.47;100.00;102531.16;5050119;28;20036;-87
2022/01/22 08:57:49;;;;;;;;;;;;;;;3.56;100.00;102533.38;5052492;28;20424;-89
2022/01/22 09:00:31;;;;;;;34.10;10.95;;;;;;;3.61;100.00;102535.78;5055798;28;19912;-91
2022/01/22 09:03:07;;;;;;;27.70;10.95;;;;;;;3.63;100.00;102528.63;5041791;28;20489;-91
2022/01/22 09:05:50;;;;;;;26.95;10.00;;;;;;;3.74;100.00;102536.88;5054110;28;20101;-90
2022/01/22 09:08:34;;;;;;;20.75;7.55;;;;;;;3.77;100.00;102532.31;5060315;28;20110;-90
2022/01/22 09:11:12;;;;;;;22.48;8.88;;;;;;;3.86;100.00;102535.44;5047908;28;20024;-90
2022/01/22 09:13:55;;;;;;;20.85;9.90;;;;;;;3.92;100.00;102538.63;5061835;28;20311;-89
2022/01/22 09:16:25;;;;;;;33.65;12.98;;;;;;;3.99;100.00;102542.69;5054200;28;20029;-90
2022/01/22 09:18:53;;;;;;;32.08;12.05;;;;;;;4.01;100.00;102540.81;5059604;28;20028;-90
2022/01/22 09:21:19;;;;;;;29.52;11.93;;;;;;;4.03;100.00;102527.53;5051007;28;20040;-89
2022/01/22 09:23:44;;;;;;;33.53;12.57;;;;;;;4.17;100.00;102545.38;5061115;28;20032;-89
2022/01/22 09:26:13;;;;;;;32.30;13.88;;;;;;;4.17;100.00;102556.78;5070137;28;20718;-89
2022/01/22 09:28:39;;;;;;;45.33;13.63;;;;;;;4.13;100.00;102536.72;5042476;28;20063;-90
2022/01/22 09:31:04;;;;;;;38.58;15.90;;;;;;;4.05;100.00;102528.34;5052757;28;20032;-89
2022/01/22 09:33:30;;;;;;;36.80;11.15;;;;;;;4.21;100.00;102553.06;5061295;28;20067;-90
2022/01/22 09:36:05;;;;;;;20.48;8.15;;;;;;;4.30;100.00;102561.44;5065153;28;20029;-90
2022/01/22 09:38:50;;;;;;;29.95;11.93;;;;;;;4.37;100.00;102557.56;5065148;28;20054;-89
2022/01/22 09:41:19;;;;;;;30.92;11.88;;;;;;;4.36;100.00;102555.88;5060990;28;20044;-90
2022/01/22 09:44:07;;;;;;;29.02;11.63;;;;;;;4.40;100.00;102552.09;5061173;28;20020;-90
2022/01/22 09:46:58;;;;;;;28.75;10.23;;;;;;;4.49;100.00;102566.66;5050903;28;20028;-90
2022/01/22 09:49:39;;;;;;;32.70;11.65;;;;;;;4.52;100.00;102562.09;5053651;28;20036;-89
2022/01/22 09:52:40;;;;;;;29.55;11.25;;;;;;;4.55;100.00;102553.13;5005531;28;20049;-89
2022/01/22 09:55:31;;;;;;;38.97;11.65;;;;;;;4.53;100.00;102553.19;5040039;28;20472;-88
2022/01/22 09:58:11;;;;;;;25.10;10.55;;;;;;;4.61;100.00;102551.03;5048683;28;20037;-89
2022/01/22 10:01:18;;;;;;;25.70;9.85;;;;;;;4.69;100.00;102563.00;5073984;28;20017;-89
2022/01/22 10:03:45;;;;;;;27.80;9.27;;;;;;;4.73;100.00;102552.19;5055146;28;20039;-90
2022/01/22 10:06:27;;;;;;;35.50;11.77;;;;;;;4.80;100.00;102544.75;5053785;28;20025;-89
2022/01/22 10:09:24;;;;;;;28.65;10.88;;;;;;;4.79;100.00;102537.75;5055106;28;20044;-89
2022/01/22 10:12:14;;;;;;;26.52;10.82;;;;;;;4.81;100.00;102530.59;5067658;28;20416;-89
2022/01/22 10:15:18;;;;;;;20.27;8.88;;;;;;;4.90;100.00;102540.69;5060830;28;20047;-90
2022/01/22 10:17:54;;;;;;;23.40;9.63;;;;;;;4.94;100.00;102542.25;5050883;28;20040;-89
2022/01/22 10:20:23;;;;;;;27.33;9.88;;;;;;;4.92;100.00;102533.53;5056624;28;20037;-89
2022/01/22 10:22:51;;;;;;;25.80;10.07;;;;;;;4.96;100.00;102540.34;5058099;28;20106;-89
2022/01/22 10:25:27;;;;;;;27.13;9.13;;;;;;;4.96;100.00;102527.13;5042260;28;20028;-90
2022/01/22 10:28:05;;;;;;;24.92;8.82;;;;;;;5.01;100.00;102535.69;5050386;28;20048;-89
2022/01/22 10:30:40;;;;;;;30.08;10.25;;;;;;;5.04;100.00;102524.06;5051085;28;20133;-90
2022/01/22 10:33:34;;;;;;;22.70;9.27;;;;;;;4.96;100.00;102500.63;5063584;28;20039;-90
2022/01/22 10:36:21;;;;;;;21.05;8.10;;;;;;;5.12;100.00;102528.94;5066878;28;20059;-89
2022/01/22 10:39:23;;;;;;;23.23;8.13;;;;;;;5.09;100.00;102522.03;5066372;28;20097;-89
2022/01/22 10:41:50;;;;;;;16.98;7.22;;;;;;;5.15;100.00;102521.69;5049887;28;20455;-89
2022/01/22 10:44:20;;;;;;;;;;;;;;;5.14;100.00;102511.19;5059598;28;20009;-89
2022/01/22 10:49:26;;;;;;;12.00;4.90;;;;;;;5.19;100.00;102515.28;5060542;28;20516;-89
2022/01/22 10:51:56;;;;;;;12.32;4.45;;;;;;;5.19;100.00;102509.97;5058929;28;20043;-89
2022/01/22 10:54:27;;;;;;;14.10;4.90;;;;;;;5.16;100.00;102504.00;5040820;28;20041;-89
2022/01/22 10:56:53;;;;;;;10.82;4.72;;;;;;;5.26;100.00;102513.16;5048872;28;20039;-90
2022/01/22 10:59:21;;;;;;;11.57;4.43;;;;;;;5.15;100.00;102491.69;5042862;28;20749;-89
2022/01/22 11:01:59;;;;;;;12.93;4.45;;;;;;;5.31;100.00;102502.31;5065845;28;20044;-89
2022/01/22 11:04:34;;;;;;;9.73;3.85;;;;;;;5.25;100.00;102498.22;5054092;28;20040;-88
2022/01/22 11:07:02;;;;;;;13.40;4.63;;;;;;;5.19;100.00;102487.94;5067268;28;20041;-88
2022/01/22 11:09:32;;;;;;;11.32;4.72;;;;;;;5.24;100.00;102493.84;5048952;28;20036;-88
2022/01/22 11:12:00;;;;;;;10.70;4.13;;;;;;;5.23;100.00;102500.09;5068590;28;20490;-89
2022/01/22 11:14:30;;;;;;;9.93;4.85;;;;;;;5.22;100.00;102493.06;5046225;28;20025;-89
2022/01/22 11:16:57;;;;;;;15.82;5.88;;;;;;;5.25;100.00;102496.41;5070929;28;20037;-89
2022/01/22 11:19:32;;;;;;;13.90;5.10;;;;;;;5.34;100.00;102504.78;5050371;28;20497;-88
2022/01/22 11:22:05;;;;;;;10.63;3.47;;;;;;;5.36;100.00;102503.78;5046448;28;20445;-88
2022/01/22 11:24:34;;;;;;;15.35;4.45;;;;;;;5.37;100.00;102504.63;5062484;28;20356;-88
2022/01/22 11:27:02;;;;;;;14.95;5.55;;;;;;;5.41;100.00;102499.06;5054934;28;20016;-88
2022/01/22 11:29:45;;;;;;;13.50;5.22;;;;;;;5.36;100.00;102501.13;5054262;28;20040;-88
2022/01/22 11:32:12;;;;;;;12.07;4.68;;;;;;;5.41;100.00;102509.66;5044277;28;20025;-90
2022/01/22 11:34:40;;;;;;;14.48;5.22;;;;;;;5.53;100.00;102512.56;5083629;28;20039;-88
2022/01/22 11:37:14;;;;;;;10.20;4.22;;;;;;;5.60;100.00;102508.63;5052328;28;20086;-87
2022/01/22 11:39:40;;;;;;;8.82;4.63;;;;;;;5.61;100.00;102515.63;5059195;28;20044;-86
2022/01/22 11:42:06;;;;;;;10.60;4.45;;;;;;;5.59;100.00;102517.50;5059311;28;20025;-90
2022/01/22 11:44:40;;;;;;;15.05;6.13;;;;;;;5.60;100.00;102498.03;5070139;28;20119;-89
2022/01/22 11:47:25;;;;;;;14.15;4.78;;;;;;;5.81;100.00;102504.75;5064618;28;20032;-89
2022/01/22 11:50:04;;;;;;;13.52;4.53;;;;;;;5.83;100.00;102500.22;5051585;28;20036;-88
2022/01/22 11:52:33;;;;;;;13.60;4.35;;;;;;;5.83;100.00;102502.88;5058881;28;20076;-89
2022/01/22 11:55:01;;;;;;;9.38;4.68;;;;;;;5.88;100.00;102500.81;5052756;28;20108;-88
2022/01/22 11:57:29;;;;;;;11.25;4.55;;;;;;;5.79;100.00;102492.53;5071888;28;20540;-90
2022/01/22 12:00:22;;;;;;;11.38;4.00;;;;;;;5.72;100.00;102487.56;5070182;28;20151;-88
2022/01/22 12:03:03;;;;;;;12.35;4.22;;;;;;;5.81;100.00;102488.00;5062091;28;20036;-89
2022/01/22 12:05:29;;;;;;;14.98;4.10;;;;;;;5.71;100.00;102487.66;5062018;28;20111;-89
2022/01/22 12:07:59;;;;;;;8.27;3.53;;;;;;;5.78;100.00;102483.69;5061848;28;20021;-89
2022/01/22 12:10:40;;;;;;;12.48;4.28;;;;;;;5.68;100.00;102471.94;5053506;28;20041;-89
2022/01/22 12:16:07;;;;;;;13.43;5.22;;;;;;;5.80;100.00;102473.03;5062998;28;20036;-89
2022/01/22 12:18:35;;;;;;;12.27;4.43;;;;;;;5.80;100.00;102479.16;5050239;28;20039;-89
2022/01/22 12:23:32;;;;;;;11.02;5.00;;;;;;;5.77;100.00;102478.50;5065653;28;20051;-89
2022/01/22 12:26:00;;;;;;;7.87;4.00;;;;;;;5.73;100.00;102472.50;5070874;28;20402;-88
2022/01/22 12:28:41;;;;;;;10.93;4.50;;;;;;;5.57;100.00;102454.03;5071143;28;20412;-89
2022/01/22 12:31:09;;;;;;;8.85;4.00;;;;;;;5.66;100.00;102476.47;5064212;28;20382;-88
2022/01/22 12:33:34;;;;;;;14.13;5.40;;;;;;;5.67;100.00;102467.59;5061245;28;20079;-89
2022/01/22 12:36:04;;;;;;;12.43;3.97;;;;;;;5.64;100.00;102473.91;5056670;28;20245;-89
2022/01/22 12:38:36;;;;;;;14.20;4.88;;;;;;;5.56;100.00;102460.25;5056760;28;20052;-89
2022/01/22 12:41:46;;;;;;;8.85;4.05;;;;;;;5.56;100.00;102473.50;5059726;28;20057;-89
2022/01/22 12:44:06;;;;;;;13.20;5.00;;;;;;;5.52;100.00;102465.81;5068306;28;20048;-89
2022/01/22 12:46:33;;;;;;;9.98;4.70;;;;;;;5.58;100.00;102479.56;5069577;28;20550;-88
2022/01/22 12:49:01;;;;;;;12.50;4.38;;;;;;;5.55;100.00;102463.84;5050653;28;20448;-88
2022/01/22 12:51:26;;;;;;;11.77;4.88;;;;;;;5.59;100.00;102469.81;5073206;28;20512;-88
2022/01/22 12:53:52;;;;;;;6.37;3.70;;;;;;;5.68;100.00;102474.59;5054674;28;20058;-89
2022/01/22 12:59:01;;;;;;;9.10;4.40;;;;;;;5.55;100.00;102461.19;5063261;28;20029;-89
2022/01/22 13:01:28;;;;;;;11.52;4.40;;;;;;;5.64;100.00;102467.75;5049131;28;20025;-89
2022/01/22 13:03:55;;;;;;;9.30;4.60;;;;;;;5.67;100.00;102472.88;5070323;28;20493;-88
2022/01/22 13:06:37;;;;;;;9.85;4.28;;;;;;;5.71;100.00;102469.97;5050945;28;20047;-89
2022/01/22 13:09:21;;;;;;;6.57;2.88;;;;;;;5.68;100.00;102474.59;5066020;28;20055;-88
2022/01/22 13:11:51;;;;;;;7.30;2.77;;;;;;;5.67;100.00;102470.25;5065483;28;20036;-88
2022/01/22 13:14:28;;;;;;;3.53;2.13;;;;;;;5.76;100.00;102477.66;5041865;28;20021;-89